Time;durP1;ratioP1;P1;durP2;ratioP2;P2;SDS_P1;SDS_P2;PMS_P1;PMS_P2;Temp;Humidity;BMP_temperature;BMP_pressure;BME280_temperature;BME280_humidity;BME280_pressure;Samples;Min_cycle;Max_cycle;Signal;HPM_P1;HPM_P2
2021/08/29 00:01:39;;;;;;;1.43;0.97;;;27.70;99.90;;;;;;6273296;22;20163;-96
2021/08/29 00:04:14;;;;;;;1.20;1.10;;;27.70;99.90;;;;;;6274102;22;20183;-95
2021/08/29 00:06:51;;;;;;;1.83;1.03;;;27.80;99.90;;;;;;6274136;22;20176;-94
2021/08/29 00:12:00;;;;;;;1.23;0.90;;;27.80;99.90;;;;;;6234615;22;20194;-93
2021/08/29 00:14:33;;;;;;;1.20;1.00;;;27.90;99.90;;;;;;6272518;22;20221;-96
2021/08/29 00:17:06;;;;;;;1.20;1.00;;;27.70;99.90;;;;;;6266942;23;20180;-96
2021/08/29 00:19:39;;;;;;;1.13;1.00;;;27.40;99.90;;;;;;6263325;23;20176;-96
2021/08/29 00:22:13;;;;;;;2.30;1.10;;;27.40;99.90;;;;;;6267670;22;20152;-96
2021/08/29 00:24:45;;;;;;;1.97;1.30;;;27.40;99.90;;;;;;6230820;22;20198;-92
2021/08/29 00:27:17;;;;;;;1.90;1.30;;;27.40;99.90;;;;;;6305088;22;20155;-96
2021/08/29 00:29:50;;;;;;;1.43;1.10;;;27.40;99.90;;;;;;6301487;22;20160;-96
2021/08/29 00:32:23;;;;;;;2.03;1.10;;;27.30;99.90;;;;;;6302391;22;20261;-96
2021/08/29 00:34:56;;;;;;;1.70;1.10;;;27.10;99.90;;;;;;6302005;22;20179;-96
2021/08/29 00:37:34;;;;;;;1.73;1.10;;;27.20;99.90;;;;;;6302210;22;20178;-96
2021/08/29 00:40:07;;;;;;;1.30;1.07;;;27.20;99.90;;;;;;6272042;22;20182;-96
2021/08/29 00:42:39;;;;;;;2.27;1.07;;;27.10;99.90;;;;;;6293381;22;20189;-96
2021/08/29 00:45:15;;;;;;;1.83;1.07;;;27.10;99.90;;;;;;6269625;22;20201;-96
2021/08/29 00:47:49;;;;;;;1.27;1.10;;;27.30;99.90;;;;;;6294584;22;20178;-96
2021/08/29 00:50:22;;;;;;;3.67;1.37;;;27.20;99.90;;;;;;6299569;22;20163;-96
2021/08/29 00:52:55;;;;;;;2.30;1.03;;;27.10;99.90;;;;;;6297358;22;20171;-96
2021/08/29 00:55:26;;;;;;;1.30;1.00;;;26.90;99.90;;;;;;6270480;22;20198;-96
2021/08/29 00:57:59;;;;;;;1.97;1.10;;;26.90;99.90;;;;;;6297578;22;20220;-96
2021/08/29 01:00:35;;;;;;;1.63;1.37;;;26.80;99.90;;;;;;6270147;22;20175;-96
2021/08/29 01:03:06;;;;;;;0.90;0.83;;;26.70;99.90;;;;;;6296125;22;20584;-96
2021/08/29 01:05:44;;;;;;;1.70;1.17;;;26.50;99.90;;;;;;6296401;22;20191;-96
2021/08/29 01:08:22;;;;;;;1.30;1.20;;;26.40;99.90;;;;;;6289841;22;20220;-96
2021/08/29 01:10:59;;;;;;;3.03;1.53;;;26.20;99.90;;;;;;6294863;22;20175;-96
2021/08/29 01:13:35;;;;;;;3.33;1.33;;;26.20;99.90;;;;;;6266256;22;20174;-96
2021/08/29 01:16:10;;;;;;;2.97;1.27;;;26.40;99.90;;;;;;6260477;22;20174;-96
2021/08/29 01:18:42;;;;;;;1.40;1.27;;;26.60;99.90;;;;;;6287995;22;20640;-96
2021/08/29 01:21:16;;;;;;;1.20;0.97;;;26.60;99.90;;;;;;6288693;22;20186;-96
2021/08/29 01:23:54;;;;;;;2.83;1.13;;;26.70;99.90;;;;;;6299151;22;20169;-96
2021/08/29 01:26:36;;;;;;;1.70;1.37;;;26.70;99.90;;;;;;6301068;22;20187;-96
2021/08/29 01:29:14;;;;;;;1.10;1.00;;;26.40;99.90;;;;;;6277361;22;20182;-96
2021/08/29 01:31:47;;;;;;;1.50;1.20;;;25.80;99.90;;;;;;6300608;22;20169;-96
2021/08/29 01:34:20;;;;;;;2.67;1.40;;;25.30;99.90;;;;;;6300525;22;20187;-96
2021/08/29 01:36:57;;;;;;;2.97;1.10;;;24.90;99.90;;;;;;6301870;22;20212;-96
2021/08/29 01:39:31;;;;;;;1.97;1.20;;;24.70;99.90;;;;;;6299158;22;20175;-96
2021/08/29 01:42:04;;;;;;;2.87;1.43;;;24.50;99.90;;;;;;6296639;22;20160;-96
2021/08/29 01:44:41;;;;;;;1.20;1.10;;;24.30;99.90;;;;;;6302189;22;20195;-96
2021/08/29 01:47:12;;;;;;;1.50;0.90;;;24.10;99.90;;;;;;6300751;22;20189;-96
2021/08/29 01:49:44;;;;;;;1.30;1.20;;;23.90;99.90;;;;;;6299723;22;20236;-96
2021/08/29 01:52:17;;;;;;;1.67;1.20;;;23.80;99.90;;;;;;6297454;22;20171;-96
2021/08/29 01:54:50;;;;;;;2.47;1.20;;;23.60;99.90;;;;;;6295852;22;20171;-96
2021/08/29 01:57:23;;;;;;;2.27;1.20;;;23.50;99.90;;;;;;6295399;22;20167;-96
2021/08/29 01:59:57;;;;;;;2.73;1.27;;;23.30;99.90;;;;;;6271805;22;20190;-95
2021/08/29 02:02:29;;;;;;;3.50;1.40;;;23.20;99.90;;;;;;6287998;22;20175;-96
2021/08/29 02:05:01;;;;;;;1.60;1.20;;;22.90;99.90;;;;;;6272476;22;20219;-96
2021/08/29 02:07:34;;;;;;;2.27;1.60;;;22.80;99.90;;;;;;6282518;22;20175;-96
2021/08/29 02:10:09;;;;;;;2.77;1.27;;;22.60;99.90;;;;;;6284230;22;20167;-95
2021/08/29 02:12:46;;;;;;;2.83;1.27;;;22.50;99.90;;;;;;6281062;22;20212;-96
2021/08/29 02:15:24;;;;;;;2.40;1.40;;;22.40;99.90;;;;;;6285783;22;20625;-96
2021/08/29 02:18:01;;;;;;;4.87;1.60;;;22.30;99.90;;;;;;6282244;22;20254;-96
2021/08/29 02:20:34;;;;;;;2.37;1.30;;;22.30;99.90;;;;;;6279740;22;20179;-96
2021/08/29 02:23:08;;;;;;;4.80;1.40;;;22.20;99.90;;;;;;6283826;22;20214;-96
2021/08/29 02:25:40;;;;;;;3.23;1.80;;;22.20;99.90;;;;;;6282659;22;20204;-96
2021/08/29 02:28:12;;;;;;;4.20;1.30;;;22.10;99.90;;;;;;6281858;22;20177;-96
2021/08/29 02:30:47;;;;;;;2.30;1.50;;;21.90;99.90;;;;;;6279616;22;20691;-96
2021/08/29 02:33:18;;;;;;;4.03;1.30;;;21.90;99.90;;;;;;6282153;22;20357;-96
2021/08/29 02:35:51;;;;;;;2.17;1.40;;;21.90;99.90;;;;;;6282603;22;20175;-96
2021/08/29 02:38:23;;;;;;;3.33;1.80;;;21.70;99.90;;;;;;6281954;22;20210;-96
2021/08/29 02:40:57;;;;;;;1.83;1.47;;;21.70;99.90;;;;;;6282603;22;20215;-96
2021/08/29 02:43:32;;;;;;;3.53;3.23;;;21.60;99.90;;;;;;6290099;22;20185;-96
2021/08/29 02:46:06;;;;;;;2.53;2.00;;;21.50;99.90;;;;;;6301039;22;20212;-96
2021/08/29 02:48:43;;;;;;;5.77;1.30;;;21.40;99.90;;;;;;6301510;22;20171;-96
2021/08/29 02:51:17;;;;;;;3.37;2.30;;;21.30;99.90;;;;;;6277162;22;20180;-96
2021/08/29 02:53:48;;;;;;;2.27;1.60;;;21.20;99.90;;;;;;6297163;22;20178;-96
2021/08/29 02:56:21;;;;;;;2.53;1.93;;;21.00;99.90;;;;;;6262122;22;20601;-96
2021/08/29 02:58:53;;;;;;;1.87;1.50;;;20.80;99.90;;;;;;6287023;22;20187;-93
2021/08/29 03:01:26;;;;;;;2.37;1.40;;;20.70;99.90;;;;;;6298524;22;20167;-93
2021/08/29 03:03:59;;;;;;;3.03;1.60;;;20.60;99.90;;;;;;6301169;22;20175;-92
2021/08/29 03:06:33;;;;;;;1.70;1.30;;;20.40;99.90;;;;;;6289695;22;20200;-96
2021/08/29 03:09:06;;;;;;;2.17;1.03;;;20.30;99.90;;;;;;6288121;22;20171;-96
2021/08/29 03:11:37;;;;;;;1.73;1.40;;;20.10;99.90;;;;;;6282165;22;20233;-96
2021/08/29 03:14:09;;;;;;;2.00;1.10;;;20.10;99.90;;;;;;6256409;22;20155;-96
2021/08/29 03:16:43;;;;;;;2.93;1.40;;;20.00;99.90;;;;;;6282692;22;20191;-96
2021/08/29 03:19:15;;;;;;;1.30;1.20;;;19.90;99.90;;;;;;6282057;22;20171;-96
2021/08/29 03:21:48;;;;;;;1.17;1.07;;;19.80;99.90;;;;;;6281386;22;20164;-96
2021/08/29 03:24:20;;;;;;;2.40;1.47;;;19.60;99.90;;;;;;6281412;22;20182;-96
2021/08/29 03:26:52;;;;;;;1.53;1.13;;;19.40;99.90;;;;;;6283046;22;20215;-96
2021/08/29 03:29:24;;;;;;;1.70;1.10;;;19.40;99.90;;;;;;6296774;22;20167;-96
2021/08/29 03:32:02;;;;;;;1.63;1.47;;;19.40;99.90;;;;;;6299679;22;20179;-96
2021/08/29 03:34:38;;;;;;;1.37;1.17;;;19.30;99.90;;;;;;6297949;22;20179;-96
2021/08/29 03:37:11;;;;;;;4.03;1.37;;;19.20;99.90;;;;;;6297112;22;20190;-96
2021/08/29 03:39:43;;;;;;;2.80;1.40;;;19.10;99.90;;;;;;6247623;22;20215;-96
2021/08/29 03:42:17;;;;;;;2.13;1.37;;;19.10;99.90;;;;;;6235259;23;20177;-96
2021/08/29 03:44:49;;;;;;;1.60;1.17;;;19.00;99.90;;;;;;6232618;23;20184;-96
2021/08/29 03:47:27;;;;;;;2.93;1.50;;;18.90;99.90;;;;;;6236658;23;20191;-95
2021/08/29 03:49:59;;;;;;;1.47;1.10;;;18.80;99.90;;;;;;6229818;23;20168;-96
2021/08/29 03:52:30;;;;;;;5.97;1.80;;;18.70;99.90;;;;;;6223830;23;20264;-96
2021/08/29 03:55:02;;;;;;;1.77;1.47;;;18.60;99.90;;;;;;6225308;23;20181;-96
2021/08/29 03:57:33;;;;;;;4.27;1.80;;;18.60;99.90;;;;;;6223744;23;20172;-96
2021/08/29 04:00:07;;;;;;;2.07;1.80;;;18.50;99.90;;;;;;6233207;23;20191;-96
2021/08/29 04:02:42;;;;;;;2.07;1.60;;;18.40;99.90;;;;;;6233879;23;20192;-96
2021/08/29 04:05:15;;;;;;;1.50;1.40;;;18.40;99.90;;;;;;6236402;23;20183;-96
2021/08/29 04:07:52;;;;;;;6.70;1.57;;;18.30;99.90;;;;;;6236506;23;20186;-96
2021/08/29 04:10:26;;;;;;;2.20;1.30;;;18.30;99.90;;;;;;6242387;23;20160;-96
2021/08/29 04:12:59;;;;;;;3.90;1.60;;;18.20;99.90;;;;;;6243023;23;20236;-94
2021/08/29 04:15:32;;;;;;;3.77;1.37;;;18.20;99.90;;;;;;6238260;23;20168;-96
2021/08/29 04:18:10;;;;;;;2.90;1.80;;;18.00;99.90;;;;;;6233153;23;20203;-96
2021/08/29 04:20:43;;;;;;;3.07;2.00;;;18.00;99.90;;;;;;6231342;23;20192;-96
2021/08/29 04:23:22;;;;;;;2.87;1.50;;;17.90;99.90;;;;;;6232445;23;20172;-96
2021/08/29 04:25:54;;;;;;;3.33;1.57;;;17.90;99.90;;;;;;6224420;23;20231;-96
2021/08/29 04:28:25;;;;;;;1.63;1.30;;;17.80;99.90;;;;;;6228762;23;20169;-96
2021/08/29 04:31:00;;;;;;;2.53;1.47;;;17.70;99.90;;;;;;6223460;23;20181;-96
2021/08/29 04:33:34;;;;;;;1.83;1.43;;;17.60;99.90;;;;;;6233852;23;20168;-96
2021/08/29 04:36:08;;;;;;;2.00;1.50;;;17.60;99.90;;;;;;6244444;22;20205;-96
2021/08/29 04:38:40;;;;;;;3.43;1.67;;;17.60;99.90;;;;;;6238317;23;20176;-96
2021/08/29 04:41:12;;;;;;;3.70;1.70;;;17.50;99.90;;;;;;6237382;23;20195;-96
2021/08/29 04:43:43;;;;;;;1.97;1.70;;;17.40;99.90;;;;;;6228790;23;20507;-96
2021/08/29 04:46:14;;;;;;;3.03;1.80;;;17.40;99.90;;;;;;6223028;23;20204;-96
2021/08/29 04:48:48;;;;;;;1.70;1.60;;;17.40;99.90;;;;;;6222907;23;20220;-96
2021/08/29 04:51:19;;;;;;;2.87;1.57;;;17.40;99.90;;;;;;6224436;23;20541;-96
2021/08/29 04:53:51;;;;;;;3.43;1.77;;;17.30;99.90;;;;;;6227747;23;20209;-96
2021/08/29 04:56:22;;;;;;;1.97;1.70;;;17.30;99.90;;;;;;6242282;23;20632;-96
2021/08/29 04:58:54;;;;;;;2.63;1.60;;;17.20;99.90;;;;;;6242107;23;20208;-96
2021/08/29 05:01:30;;;;;;;1.53;1.43;;;17.20;99.90;;;;;;6241889;23;20181;-96
2021/08/29 05:04:04;;;;;;;2.60;1.40;;;17.10;99.90;;;;;;6242399;23;20164;-96
2021/08/29 05:06:35;;;;;;;3.87;2.00;;;17.00;99.90;;;;;;6238057;22;20212;-94
2021/08/29 05:09:07;;;;;;;2.33;1.40;;;17.00;99.90;;;;;;6242602;23;20183;-96
2021/08/29 05:11:40;;;;;;;1.77;1.37;;;17.00;99.90;;;;;;6232279;22;20199;-96
2021/08/29 05:14:11;;;;;;;2.17;1.50;;;16.90;99.90;;;;;;6237239;23;20176;-96
2021/08/29 05:16:43;;;;;;;1.97;1.20;;;16.80;99.90;;;;;;6241473;23;20199;-96
2021/08/29 05:19:17;;;;;;;2.20;1.67;;;16.80;99.90;;;;;;6239048;23;20161;-96
2021/08/29 05:21:48;;;;;;;4.33;1.80;;;16.80;99.90;;;;;;6240574;23;20180;-96
2021/08/29 05:24:20;;;;;;;2.47;1.70;;;16.70;99.90;;;;;;6241117;23;20187;-96
2021/08/29 05:26:52;;;;;;;2.20;1.40;;;16.70;99.90;;;;;;6238991;22;20235;-96
2021/08/29 05:29:28;;;;;;;1.60;1.30;;;16.70;99.90;;;;;;6242734;23;20207;-94
2021/08/29 05:32:00;;;;;;;5.60;1.60;;;16.60;99.90;;;;;;6242204;23;20160;-96
2021/08/29 05:34:34;;;;;;;1.53;1.43;;;16.60;99.90;;;;;;6242646;23;20222;-96
2021/08/29 05:37:07;;;;;;;1.40;1.30;;;16.60;99.90;;;;;;6242000;23;20602;-96
2021/08/29 05:42:24;;;;;;;1.70;1.60;;;16.60;99.90;;;;;;6233188;23;20184;-96
2021/08/29 05:44:56;;;;;;;2.50;1.50;;;16.60;99.90;;;;;;6231847;23;20176;-96
2021/08/29 05:47:28;;;;;;;1.93;1.10;;;16.60;99.90;;;;;;6235639;23;20267;-96
2021/08/29 05:50:02;;;;;;;2.10;1.27;;;16.50;99.90;;;;;;6229502;23;20176;-96
2021/08/29 05:52:34;;;;;;;1.90;1.40;;;16.50;99.90;;;;;;6230893;23;20165;-96
2021/08/29 05:55:07;;;;;;;2.37;1.30;;;16.40;99.90;;;;;;6233733;23;20169;-96
2021/08/29 05:57:38;;;;;;;2.03;1.50;;;16.40;99.90;;;;;;6235746;23;20179;-96
2021/08/29 06:00:12;;;;;;;3.10;1.50;;;16.40;99.90;;;;;;6228443;23;20176;-96
2021/08/29 06:02:44;;;;;;;2.03;1.30;;;16.40;99.90;;;;;;6228451;23;20619;-95
2021/08/29 06:05:23;;;;;;;3.83;1.30;;;16.40;99.90;;;;;;6227539;23;20168;-96
2021/08/29 06:07:54;;;;;;;1.30;1.20;;;16.40;99.90;;;;;;6226935;23;20199;-96
2021/08/29 06:10:25;;;;;;;1.97;1.40;;;16.30;99.90;;;;;;6225518;23;20180;-96
2021/08/29 06:12:58;;;;;;;1.60;1.30;;;16.20;99.90;;;;;;6223210;23;20239;-96
2021/08/29 06:15:29;;;;;;;1.37;1.10;;;16.20;99.90;;;;;;6222975;23;20207;-96
2021/08/29 06:18:00;;;;;;;1.90;1.20;;;16.10;99.90;;;;;;6222074;23;20615;-96
2021/08/29 06:20:34;;;;;;;2.30;1.40;;;16.10;99.90;;;;;;6223696;23;20187;-96
2021/08/29 06:23:06;;;;;;;2.17;1.40;;;16.10;99.90;;;;;;6222483;23;20536;-96
2021/08/29 06:25:37;;;;;;;1.17;1.10;;;16.00;99.90;;;;;;6222017;23;20184;-96
2021/08/29 06:28:09;;;;;;;1.83;1.37;;;15.90;99.90;;;;;;6245705;23;20249;-96
2021/08/29 06:30:42;;;;;;;1.53;1.27;;;15.90;99.90;;;;;;6250232;23;20179;-96
2021/08/29 06:33:13;;;;;;;2.73;1.20;;;15.90;99.90;;;;;;6254723;22;20202;-96
2021/08/29 06:35:47;;;;;;;1.37;1.20;;;15.90;99.90;;;;;;6251739;23;20195;-96
2021/08/29 06:38:19;;;;;;;3.27;1.43;;;15.80;99.90;;;;;;6224550;23;20196;-96
2021/08/29 06:40:50;;;;;;;2.10;1.40;;;15.80;99.90;;;;;;6251130;23;20175;-96
2021/08/29 06:43:22;;;;;;;1.77;1.50;;;15.80;99.90;;;;;;6228623;23;20218;-96
2021/08/29 06:45:53;;;;;;;3.50;1.60;;;15.70;99.90;;;;;;6251096;23;20195;-96
2021/08/29 06:48:25;;;;;;;2.70;1.70;;;15.70;99.90;;;;;;6251818;23;20672;-96
2021/08/29 06:50:59;;;;;;;1.40;1.20;;;15.70;99.90;;;;;;6250860;23;20191;-96
2021/08/29 06:53:30;;;;;;;4.57;1.40;;;15.60;99.90;;;;;;6252242;23;20670;-96
2021/08/29 06:56:01;;;;;;;1.70;1.47;;;15.60;99.90;;;;;;6251036;23;20183;-95
2021/08/29 06:58:32;;;;;;;2.70;1.30;;;15.50;99.90;;;;;;6224865;23;20186;-96
2021/08/29 07:01:03;;;;;;;3.73;1.43;;;15.50;99.90;;;;;;6250445;23;20207;-95
2021/08/29 07:03:36;;;;;;;2.47;1.40;;;15.40;99.90;;;;;;6266633;23;20180;-96
2021/08/29 07:06:11;;;;;;;1.97;1.77;;;15.40;99.90;;;;;;6257862;23;20194;-96
2021/08/29 07:08:42;;;;;;;2.40;1.43;;;15.30;99.90;;;;;;6225374;23;20553;-96
2021/08/29 07:11:14;;;;;;;3.77;1.43;;;15.30;99.90;;;;;;6250982;23;20237;-96
2021/08/29 07:13:45;;;;;;;4.83;1.50;;;15.20;99.90;;;;;;6253597;23;20179;-96
2021/08/29 07:16:16;;;;;;;1.37;1.20;;;15.10;99.90;;;;;;6226782;23;20179;-96
2021/08/29 07:18:48;;;;;;;1.80;1.70;;;15.10;99.90;;;;;;6253422;23;20195;-96
2021/08/29 07:21:22;;;;;;;1.80;1.57;;;15.10;99.90;;;;;;6258021;23;20191;-96
2021/08/29 07:23:53;;;;;;;2.27;1.40;;;15.10;99.90;;;;;;6273323;22;20160;-96
2021/08/29 07:26:24;;;;;;;1.90;1.47;;;15.10;99.90;;;;;;6273467;22;20184;-95
2021/08/29 07:28:56;;;;;;;1.73;1.40;;;15.00;99.90;;;;;;6264402;23;20227;-96
2021/08/29 07:31:27;;;;;;;2.13;1.13;;;15.00;99.90;;;;;;6254255;23;20172;-96
2021/08/29 07:33:58;;;;;;;2.43;1.30;;;15.00;99.90;;;;;;6256098;23;20176;-96
2021/08/29 07:36:34;;;;;;;2.70;1.17;;;15.00;99.90;;;;;;6255030;23;20174;-96
2021/08/29 07:39:05;;;;;;;2.23;1.00;;;15.00;99.90;;;;;;6254265;23;20178;-96
2021/08/29 07:41:37;;;;;;;2.63;1.40;;;15.00;99.90;;;;;;6251789;23;20171;-96
2021/08/29 07:44:09;;;;;;;1.30;1.20;;;14.80;99.90;;;;;;6227470;23;20236;-96
2021/08/29 07:46:40;;;;;;;2.93;1.60;;;14.80;99.90;;;;;;6228460;23;20179;-96
2021/08/29 07:49:11;;;;;;;2.77;1.43;;;14.80;99.90;;;;;;6253279;23;20200;-96
2021/08/29 07:51:45;;;;;;;2.50;1.40;;;14.70;99.90;;;;;;6252664;23;20182;-96
2021/08/29 07:54:16;;;;;;;4.13;1.47;;;14.80;99.90;;;;;;6253912;23;20221;-96
2021/08/29 07:56:48;;;;;;;1.97;1.50;;;14.80;99.90;;;;;;6227878;23;20178;-96
2021/08/29 07:59:19;;;;;;;2.80;1.33;;;14.70;99.90;;;;;;6251945;23;20734;-96
2021/08/29 08:01:50;;;;;;;2.10;1.30;;;14.60;99.90;;;;;;6252712;23;20203;-96
2021/08/29 08:04:22;;;;;;;2.60;1.50;;;14.60;99.90;;;;;;6226444;23;20176;-96
2021/08/29 08:06:56;;;;;;;1.57;1.27;;;14.60;99.90;;;;;;6253144;23;20183;-96
2021/08/29 08:09:29;;;;;;;4.63;1.40;;;14.50;99.90;;;;;;6254646;23;20257;-96
2021/08/29 08:14:48;;;;;;;3.13;1.60;;;14.50;99.90;;;;;;6230675;23;20180;-96
2021/08/29 08:17:22;;;;;;;3.90;1.70;;;14.40;99.90;;;;;;6241916;23;20169;-96
2021/08/29 08:19:53;;;;;;;2.13;1.53;;;14.50;99.90;;;;;;6242644;23;20157;-96
2021/08/29 08:22:26;;;;;;;2.30;1.40;;;14.50;99.90;;;;;;6238922;23;20181;-96
2021/08/29 08:24:58;;;;;;;5.73;1.50;;;14.40;99.90;;;;;;6234495;23;20225;-96
2021/08/29 08:27:29;;;;;;;3.20;1.67;;;14.40;99.90;;;;;;6233554;23;20235;-95
2021/08/29 08:30:01;;;;;;;2.00;1.60;;;14.30;99.90;;;;;;6236831;23;20172;-96
2021/08/29 08:32:32;;;;;;;4.20;1.97;;;14.30;99.90;;;;;;6233337;23;20188;-95
2021/08/29 08:35:04;;;;;;;1.93;1.70;;;14.30;99.90;;;;;;6237099;23;20190;-96
2021/08/29 08:37:38;;;;;;;2.73;1.70;;;14.30;99.90;;;;;;6233451;23;20169;-95
2021/08/29 08:40:10;;;;;;;2.40;1.83;;;14.20;99.90;;;;;;6223828;23;20175;-94
2021/08/29 08:42:42;;;;;;;3.20;2.10;;;14.20;99.90;;;;;;6221512;23;20188;-95
2021/08/29 08:45:15;;;;;;;3.13;1.90;;;14.20;99.90;;;;;;6221958;23;20275;-95
2021/08/29 08:47:47;;;;;;;3.57;1.90;;;14.20;99.90;;;;;;6219797;23;20177;-95
2021/08/29 08:50:19;;;;;;;3.33;2.10;;;14.10;99.90;;;;;;6220851;23;20195;-95
2021/08/29 08:52:56;;;;;;;2.10;1.60;;;14.00;99.90;;;;;;6221731;23;20200;-96
2021/08/29 08:55:28;;;;;;;4.60;1.80;;;14.00;99.90;;;;;;6221588;23;20262;-96
2021/08/29 08:58:00;;;;;;;4.67;1.90;;;13.90;99.90;;;;;;6220775;23;20168;-95
2021/08/29 09:00:32;;;;;;;2.03;1.50;;;13.90;99.90;;;;;;6220938;23;20207;-95
2021/08/29 09:03:04;;;;;;;4.33;1.90;;;13.90;99.90;;;;;;6221526;23;20298;-96
2021/08/29 09:05:39;;;;;;;2.23;2.00;;;13.90;99.90;;;;;;6221653;23;20164;-95
2021/08/29 09:08:12;;;;;;;4.17;1.87;;;13.90;99.90;;;;;;6221013;23;20195;-96
2021/08/29 09:10:44;;;;;;;3.10;1.77;;;13.90;99.90;;;;;;6224877;22;20522;-96
2021/08/29 09:13:16;;;;;;;3.53;2.00;;;13.80;99.90;;;;;;6227997;23;20233;-96
2021/08/29 09:15:48;;;;;;;2.53;1.90;;;13.80;99.90;;;;;;6221069;23;20173;-96
2021/08/29 09:18:19;;;;;;;3.97;2.23;;;13.90;99.90;;;;;;6220168;23;20240;-96
2021/08/29 09:20:51;;;;;;;4.93;2.23;;;13.90;99.90;;;;;;6220666;23;20181;-95
2021/08/29 09:23:26;;;;;;;6.70;2.77;;;13.90;99.90;;;;;;6221282;23;20176;-96
2021/08/29 09:25:57;;;;;;;3.97;2.50;;;13.90;99.90;;;;;;6221838;23;20172;-96
2021/08/29 09:28:28;;;;;;;5.33;2.70;;;13.80;99.90;;;;;;6195675;23;20208;-96
2021/08/29 09:31:01;;;;;;;3.10;2.33;;;13.80;99.90;;;;;;6196343;23;20173;-96
2021/08/29 09:33:33;;;;;;;3.50;2.67;;;13.80;99.90;;;;;;6222157;23;20227;-95
2021/08/29 09:36:06;;;;;;;2.40;1.93;;;13.80;99.90;;;;;;6221612;23;20176;-96
2021/08/29 09:38:50;;;;;;;3.47;2.07;;;13.80;99.90;;;;;;6228877;23;20172;-95
2021/08/29 09:41:26;;;;;;;2.83;1.80;;;13.80;99.90;;;;;;6240656;23;20156;-95
2021/08/29 09:44:06;;;;;;;3.10;2.20;;;13.70;99.90;;;;;;6240983;23;20172;-94
2021/08/29 09:46:54;;;;;;;3.03;1.70;;;13.70;99.90;;;;;;6224299;23;20195;-94
2021/08/29 09:49:32;;;;;;;4.47;2.00;;;13.80;99.90;;;;;;6222242;23;20196;-94
2021/08/29 09:52:05;;;;;;;1.93;1.50;;;13.80;99.90;;;;;;6221406;23;20690;-95
2021/08/29 09:54:39;;;;;;;4.20;2.00;;;13.90;99.90;;;;;;6219877;23;20180;-95
2021/08/29 09:57:13;;;;;;;3.50;1.90;;;13.90;99.90;;;;;;6221271;23;20204;-95
2021/08/29 09:59:46;;;;;;;2.80;1.87;;;14.00;99.90;;;;;;6222226;23;20226;-95
2021/08/29 10:02:21;;;;;;;2.37;1.60;;;14.00;99.90;;;;;;6219105;23;20176;-95
2021/08/29 10:05:15;;;;;;;4.33;1.77;;;14.00;99.90;;;;;;6219235;23;20172;-95
2021/08/29 10:08:00;;;;;;;3.73;2.20;;;13.90;99.90;;;;;;6221133;23;20267;-94
2021/08/29 10:10:35;;;;;;;3.87;2.03;;;13.90;99.90;;;;;;6230517;23;20208;-95
2021/08/29 10:13:06;;;;;;;3.33;2.00;;;13.90;99.90;;;;;;6251772;23;20168;-95
2021/08/29 10:15:38;;;;;;;2.20;1.80;;;13.90;99.90;;;;;;6251245;23;20199;-95
2021/08/29 10:18:13;;;;;;;4.57;2.20;;;13.90;99.90;;;;;;6226970;23;20176;-95
2021/08/29 10:20:47;;;;;;;3.97;2.57;;;13.90;99.90;;;;;;6226488;23;20202;-95
2021/08/29 10:23:19;;;;;;;3.77;1.73;;;13.80;99.90;;;;;;6226466;23;20191;-95
2021/08/29 10:25:57;;;;;;;2.83;1.93;;;13.80;99.90;;;;;;6226267;23;20187;-95
2021/08/29 10:28:32;;;;;;;2.73;2.10;;;13.80;99.90;;;;;;6254436;23;20247;-94
2021/08/29 10:31:07;;;;;;;5.83;2.20;;;13.70;99.90;;;;;;6256045;23;20175;-95
2021/08/29 10:33:47;;;;;;;3.50;2.00;;;13.60;99.90;;;;;;6271556;22;20171;-95
2021/08/29 10:36:20;;;;;;;3.03;1.93;;;13.60;99.90;;;;;;6272030;22;20171;-94
2021/08/29 10:38:52;;;;;;;2.77;1.90;;;13.50;99.90;;;;;;6266077;22;20203;-96
2021/08/29 10:41:26;;;;;;;3.07;2.40;;;13.50;99.90;;;;;;6238458;23;20186;-94
2021/08/29 10:43:57;;;;;;;4.40;2.30;;;13.50;99.90;;;;;;6238549;23;20168;-95
2021/08/29 10:46:28;;;;;;;3.47;2.27;;;13.40;99.90;;;;;;6222664;23;20184;-96
2021/08/29 10:49:02;;;;;;;3.37;1.90;;;13.30;99.90;;;;;;6227831;23;20176;-95
2021/08/29 10:51:33;;;;;;;3.83;2.17;;;13.40;99.90;;;;;;6241427;23;20203;-95
2021/08/29 10:54:13;;;;;;;4.07;2.30;;;13.40;99.90;;;;;;6241758;23;20156;-95
2021/08/29 10:56:47;;;;;;;3.70;2.20;;;13.30;99.90;;;;;;6241812;23;20166;-94
2021/08/29 10:59:29;;;;;;;3.20;2.30;;;13.30;99.90;;;;;;6241098;23;20203;-95
2021/08/29 11:02:16;;;;;;;4.27;2.27;;;13.30;99.90;;;;;;6239829;23;20168;-96
2021/08/29 11:04:49;;;;;;;3.93;2.23;;;13.20;99.90;;;;;;6230352;23;20172;-92
2021/08/29 11:07:54;;;;;;;5.23;2.17;;;13.20;99.90;;;;;;6225318;23;20168;-96
2021/08/29 11:10:45;;;;;;;4.33;2.10;;;13.10;99.90;;;;;;6135426;23;20199;-96
2021/08/29 11:13:43;;;;;;;3.10;2.20;;;13.10;99.90;;;;;;6150689;23;20170;-95
2021/08/29 11:16:23;;;;;;;5.17;2.60;;;13.10;99.90;;;;;;6226716;23;20243;-96
2021/08/29 11:19:15;;;;;;;4.17;2.23;;;13.10;99.90;;;;;;6241095;23;20224;-96
2021/08/29 11:22:15;;;;;;;3.33;2.30;;;13.00;99.90;;;;;;6222074;23;20230;-96
2021/08/29 11:25:01;;;;;;;4.67;2.37;;;13.00;99.90;;;;;;6221801;23;20177;-95
2021/08/29 11:27:53;;;;;;;4.43;2.40;;;13.00;99.90;;;;;;6221181;23;20192;-96
2021/08/29 11:30:29;;;;;;;3.47;2.57;;;13.00;99.90;;;;;;6220288;23;20204;-96
2021/08/29 11:33:05;;;;;;;3.83;2.30;;;13.00;99.90;;;;;;6221732;23;20177;-96
2021/08/29 11:35:39;;;;;;;4.03;2.40;;;13.00;99.90;;;;;;6220666;23;20199;-96
2021/08/29 11:38:13;;;;;;;3.13;2.30;;;12.90;99.90;;;;;;6221164;23;20192;-96
2021/08/29 11:40:53;;;;;;;3.90;2.40;;;12.90;99.90;;;;;;6246650;23;20187;-96
2021/08/29 11:43:33;;;;;;;2.97;2.40;;;12.80;99.90;;;;;;6250806;23;20684;-96
2021/08/29 11:46:12;;;;;;;4.57;2.50;;;12.80;99.90;;;;;;6251414;23;20255;-96
2021/08/29 11:48:55;;;;;;;3.47;2.40;;;12.70;99.90;;;;;;6250378;23;20171;-95
2021/08/29 11:51:32;;;;;;;4.40;2.60;;;12.70;99.90;;;;;;6249861;23;20195;-96
2021/08/29 11:54:06;;;;;;;5.43;2.73;;;12.70;99.90;;;;;;6249404;23;20258;-96
2021/08/29 11:56:38;;;;;;;3.83;2.50;;;12.70;99.90;;;;;;6266645;23;20206;-96
2021/08/29 11:59:10;;;;;;;3.47;2.40;;;12.70;99.90;;;;;;6246146;23;20164;-94
2021/08/29 12:01:44;;;;;;;4.93;2.50;;;12.70;99.90;;;;;;6268113;23;20586;-96
2021/08/29 12:04:23;;;;;;;4.40;2.50;;;12.70;99.90;;;;;;6256372;23;20182;-96
2021/08/29 12:07:04;;;;;;;3.53;2.40;;;12.60;99.90;;;;;;6252902;23;20171;-96
2021/08/29 12:09:40;;;;;;;5.03;2.33;;;12.60;99.90;;;;;;6252085;23;20188;-96
2021/08/29 12:12:18;;;;;;;6.43;2.50;;;12.60;99.90;;;;;;6251068;23;20191;-96
2021/08/29 12:14:52;;;;;;;3.70;2.20;;;12.60;99.90;;;;;;6252657;23;20171;-96
2021/08/29 12:17:27;;;;;;;3.70;2.60;;;12.60;99.90;;;;;;6252542;22;20210;-95
2021/08/29 12:19:59;;;;;;;5.47;2.50;;;12.50;99.90;;;;;;6221553;23;20185;-96
2021/08/29 12:22:31;;;;;;;4.00;2.53;;;12.50;99.90;;;;;;6219850;23;20187;-96
2021/08/29 12:25:03;;;;;;;4.97;2.37;;;12.50;99.90;;;;;;6221327;23;20207;-96
2021/08/29 12:27:35;;;;;;;3.60;2.20;;;12.40;99.90;;;;;;6221980;23;20172;-96
2021/08/29 12:30:07;;;;;;;3.50;2.30;;;12.40;99.90;;;;;;6221271;23;20196;-96
2021/08/29 12:32:41;;;;;;;4.13;2.60;;;12.40;99.90;;;;;;6220346;23;20180;-96
2021/08/29 12:35:14;;;;;;;6.07;2.10;;;12.40;99.90;;;;;;6221524;23;20226;-96
2021/08/29 12:37:48;;;;;;;3.90;2.57;;;12.40;99.90;;;;;;6221379;23;20620;-96
2021/08/29 12:40:20;;;;;;;5.47;2.57;;;12.40;99.90;;;;;;6220146;23;20172;-95
2021/08/29 12:42:52;;;;;;;4.37;2.60;;;12.40;99.90;;;;;;6220970;23;20177;-95
2021/08/29 12:45:24;;;;;;;6.73;3.10;;;12.40;99.90;;;;;;6220965;23;20168;-96
2021/08/29 12:47:57;;;;;;;3.43;2.27;;;12.40;99.90;;;;;;6219520;23;20184;-95
2021/08/29 12:50:29;;;;;;;4.37;2.57;;;12.30;99.90;;;;;;6220492;23;20196;-95
2021/08/29 12:53:06;;;;;;;5.37;2.83;;;12.30;99.90;;;;;;6220867;23;20219;-95
2021/08/29 12:55:40;;;;;;;4.90;2.67;;;12.30;99.90;;;;;;6221078;23;20172;-95
2021/08/29 12:58:15;;;;;;;4.40;2.40;;;12.30;99.90;;;;;;6221310;23;20598;-95
2021/08/29 13:00:51;;;;;;;5.20;2.53;;;12.30;99.90;;;;;;6219723;23;20179;-95
2021/08/29 13:03:25;;;;;;;3.93;2.50;;;12.30;99.90;;;;;;6219614;23;20260;-95
2021/08/29 13:06:04;;;;;;;6.07;2.53;;;12.30;99.90;;;;;;6220340;23;20191;-96
2021/08/29 13:08:42;;;;;;;4.37;2.33;;;12.20;99.90;;;;;;6221325;23;20165;-96
2021/08/29 13:11:15;;;;;;;5.30;2.30;;;12.20;99.90;;;;;;6218926;23;20216;-96
2021/08/29 13:13:51;;;;;;;3.73;2.63;;;12.20;99.90;;;;;;6221272;23;20300;-96
2021/08/29 13:16:37;;;;;;;4.03;2.70;;;12.10;99.90;;;;;;6220241;23;20169;-96
2021/08/29 13:19:10;;;;;;;5.00;2.63;;;12.10;99.90;;;;;;6246213;23;20188;-96
2021/08/29 13:21:43;;;;;;;3.63;2.50;;;12.10;99.90;;;;;;6250240;23;20175;-96
2021/08/29 13:24:28;;;;;;;3.97;2.80;;;12.10;99.90;;;;;;6251296;23;20618;-96
2021/08/29 13:27:02;;;;;;;4.30;2.50;;;12.00;99.90;;;;;;6250627;23;20191;-96
2021/08/29 13:29:40;;;;;;;4.27;2.60;;;12.10;99.90;;;;;;6250965;23;20175;-96
2021/08/29 13:32:12;;;;;;;3.90;2.37;;;12.00;99.90;;;;;;6250235;23;20196;-96